Time;durP1;ratioP1;P1;durP2;ratioP2;P2;SDS_P1;SDS_P2;PMS_P1;PMS_P2;Temp;Humidity;BMP_temperature;BMP_pressure;BME280_temperature;BME280_humidity;BME280_pressure;Samples;Min_cycle;Max_cycle;Signal;HPM_P1;HPM_P2
2022/05/22 00:01:37;;;;;;;5.28;2.47;;;;;;;;;;5035550;28;20037;-44
2022/05/22 00:04:03;;;;;;;3.60;2.35;;;;;;;;;;5035198;28;20516;-44
2022/05/22 00:06:29;;;;;;;4.63;2.40;;;;;;;;;;5035432;28;20380;-44
2022/05/22 00:08:55;;;;;;;3.33;2.30;;;;;;;;;;5035194;28;20036;-45
2022/05/22 00:11:22;;;;;;;6.93;2.20;;;;;;;;;;5034535;28;20064;-43
2022/05/22 00:13:49;;;;;;;6.38;2.50;;;;;;;;;;5034519;28;20109;-46
2022/05/22 00:19:00;;;;;;;4.88;2.13;;;;;;;;;;5035338;28;20091;-43
2022/05/22 00:21:26;;;;;;;3.13;2.13;;;;;;;;;;5034859;28;20029;-43
2022/05/22 00:23:51;;;;;;;5.97;2.50;;;;;;;;;;5035056;28;20084;-45
2022/05/22 00:26:17;;;;;;;4.97;2.35;;;;;;;;;;5034882;28;20018;-43
2022/05/22 00:28:42;;;;;;;2.38;1.90;;;;;;;;;;5034912;28;20025;-43
2022/05/22 00:31:08;;;;;;;8.50;2.33;;;;;;;;;;5034918;28;20159;-44
2022/05/22 00:33:34;;;;;;;2.45;1.90;;;;;;;;;;5034501;28;20030;-43
2022/05/22 00:35:59;;;;;;;4.55;1.92;;;;;;;;;;5034560;28;20033;-43
2022/05/22 00:38:25;;;;;;;4.20;1.80;;;;;;;;;;5034427;28;20025;-44
2022/05/22 00:40:50;;;;;;;3.70;2.17;;;;;;;;;;5034662;28;20029;-44
2022/05/22 00:43:27;;;;;;;2.17;1.83;;;;;;;;;;5034719;28;20030;-44
2022/05/22 00:45:52;;;;;;;6.15;1.90;;;;;;;;;;5034333;28;20026;-47
2022/05/22 00:48:18;;;;;;;3.88;1.80;;;;;;;;;;5034622;28;20025;-43
2022/05/22 00:50:43;;;;;;;2.28;2.08;;;;;;;;;;5034228;28;20037;-42
2022/05/22 00:53:09;;;;;;;2.72;2.03;;;;;;;;;;5034222;28;20465;-43
2022/05/22 00:55:35;;;;;;;2.50;1.60;;;;;;;;;;5033820;28;20122;-44
2022/05/22 00:58:09;;;;;;;4.75;2.47;;;;;;;;;;5034045;28;20026;-44
2022/05/22 01:00:36;;;;;;;4.78;2.40;;;;;;;;;;5034307;28;20033;-44
2022/05/22 01:05:51;;;;;;;4.63;2.20;;;;;;;;;;5034278;28;20091;-43
2022/05/22 01:08:17;;;;;;;3.17;2.10;;;;;;;;;;5034181;28;20021;-44
2022/05/22 01:10:46;;;;;;;2.95;2.45;;;;;;;;;;5034100;28;20029;-43
2022/05/22 01:13:13;;;;;;;4.22;2.10;;;;;;;;;;5033680;28;20028;-45
2022/05/22 01:15:39;;;;;;;2.55;2.22;;;;;;;;;;5034153;28;20025;-45
2022/05/22 01:18:04;;;;;;;4.50;1.92;;;;;;;;;;5033773;28;20488;-43
2022/05/22 01:20:30;;;;;;;8.13;2.00;;;;;;;;;;5033893;28;20036;-43
2022/05/22 01:22:55;;;;;;;4.43;2.20;;;;;;;;;;5033936;28;20112;-43
2022/05/22 01:25:21;;;;;;;2.42;2.17;;;;;;;;;;5033597;28;20017;-42
2022/05/22 01:27:47;;;;;;;2.42;2.22;;;;;;;;;;5033506;28;20033;-44
2022/05/22 01:30:17;;;;;;;5.28;2.30;;;;;;;;;;5015816;28;20026;-43
2022/05/22 01:32:46;;;;;;;4.28;2.20;;;;;;;;;;5033750;28;20070;-44
2022/05/22 01:35:15;;;;;;;3.85;2.10;;;;;;;;;;5033335;28;20638;-45
2022/05/22 01:37:42;;;;;;;5.38;2.35;;;;;;;;;;5033626;28;20151;-44
2022/05/22 01:40:09;;;;;;;5.57;2.53;;;;;;;;;;5033246;28;20047;-44
2022/05/22 01:42:35;;;;;;;2.30;2.10;;;;;;;;;;5033138;28;20029;-44
2022/05/22 01:45:01;;;;;;;4.32;2.40;;;;;;;;;;5015430;28;20025;-43
2022/05/22 01:47:26;;;;;;;2.38;2.10;;;;;;;;;;5033402;28;20080;-43
2022/05/22 01:49:52;;;;;;;2.90;2.20;;;;;;;;;;5033352;28;20021;-46
2022/05/22 01:52:17;;;;;;;3.20;2.03;;;;;;;;;;5033177;28;20022;-46
2022/05/22 01:54:43;;;;;;;2.40;2.00;;;;;;;;;;5032958;28;20453;-44
2022/05/22 01:57:08;;;;;;;2.17;1.92;;;;;;;;;;5032976;28;20029;-44
2022/05/22 01:59:34;;;;;;;2.92;2.05;;;;;;;;;;5033143;28;20026;-46
2022/05/22 02:01:59;;;;;;;4.10;1.92;;;;;;;;;;5032872;28;20429;-45
2022/05/22 02:04:25;;;;;;;2.03;1.88;;;;;;;;;;5032836;28;20073;-45
2022/05/22 02:09:34;;;;;;;3.97;2.03;;;;;;;;;;5033233;28;20064;-45
2022/05/22 02:12:00;;;;;;;2.20;2.00;;;;;;;;;;5033098;28;20034;-43
2022/05/22 02:14:26;;;;;;;5.57;2.20;;;;;;;;;;5033071;28;20508;-45
2022/05/22 02:16:51;;;;;;;2.30;2.00;;;;;;;;;;5032761;28;20029;-44
2022/05/22 02:19:16;;;;;;;2.40;2.20;;;;;;;;;;5033064;28;20030;-44
2022/05/22 02:21:42;;;;;;;2.03;1.90;;;;;;;;;;5032667;28;20037;-44
2022/05/22 02:24:07;;;;;;;4.30;1.90;;;;;;;;;;5032679;28;20021;-44
2022/05/22 02:26:33;;;;;;;2.25;2.05;;;;;;;;;;5032903;28;20036;-46
2022/05/22 02:28:58;;;;;;;6.55;1.85;;;;;;;;;;5032910;28;20029;-44
2022/05/22 02:31:24;;;;;;;2.15;1.95;;;;;;;;;;5032553;28;20022;-44
2022/05/22 02:33:49;;;;;;;2.53;2.10;;;;;;;;;;5032501;28;20076;-44
2022/05/22 02:36:15;;;;;;;2.28;1.80;;;;;;;;;;5032550;28;20036;-43
2022/05/22 02:38:41;;;;;;;2.78;2.10;;;;;;;;;;5032495;28;20048;-44
2022/05/22 02:41:17;;;;;;;2.20;2.00;;;;;;;;;;5032371;28;20120;-43
2022/05/22 02:43:43;;;;;;;2.00;1.90;;;;;;;;;;5032626;28;20026;-43
2022/05/22 02:46:10;;;;;;;2.33;2.13;;;;;;;;;;5032638;28;20152;-43
2022/05/22 02:48:36;;;;;;;3.03;2.10;;;;;;;;;;5032645;28;20032;-44
2022/05/22 02:51:01;;;;;;;3.92;1.95;;;;;;;;;;5032322;28;20018;-46
2022/05/22 02:53:27;;;;;;;3.28;2.20;;;;;;;;;;5032715;28;20036;-44
2022/05/22 02:55:52;;;;;;;3.63;2.00;;;;;;;;;;5032639;28;20461;-44
2022/05/22 02:58:18;;;;;;;2.67;2.22;;;;;;;;;;5032590;28;20022;-43
2022/05/22 03:00:43;;;;;;;2.38;1.98;;;;;;;;;;5032620;28;20150;-44
2022/05/22 03:03:09;;;;;;;2.05;1.75;;;;;;;;;;5031970;28;20083;-44
2022/05/22 03:08:19;;;;;;;3.25;1.73;;;;;;;;;;5032434;28;20059;-44
2022/05/22 03:10:47;;;;;;;3.97;2.13;;;;;;;;;;5032250;28;20026;-45
2022/05/22 03:13:13;;;;;;;2.20;2.00;;;;;;;;;;5032488;28;20025;-43
2022/05/22 03:15:40;;;;;;;2.30;2.10;;;;;;;;;;5032382;28;20030;-44
2022/05/22 03:18:06;;;;;;;5.03;1.90;;;;;;;;;;5034668;28;20430;-44
2022/05/22 03:20:31;;;;;;;2.10;1.80;;;;;;;;;;5035954;28;20022;-43
2022/05/22 03:22:58;;;;;;;2.78;2.08;;;;;;;;;;5035992;28;20037;-43
2022/05/22 03:25:24;;;;;;;1.95;1.85;;;;;;;;;;5036260;28;20025;-43
2022/05/22 03:27:50;;;;;;;3.03;2.00;;;;;;;;;;5035998;28;20057;-46
2022/05/22 03:30:16;;;;;;;2.28;1.80;;;;;;;;;;5036195;28;20049;-44
2022/05/22 03:32:41;;;;;;;3.33;2.00;;;;;;;;;;5036067;28;20461;-44
2022/05/22 03:35:07;;;;;;;2.83;1.98;;;;;;;;;;5035975;28;20404;-43
2022/05/22 03:37:33;;;;;;;4.82;1.70;;;;;;;;;;5035784;28;20465;-43
2022/05/22 03:39:58;;;;;;;2.03;1.90;;;;;;;;;;5035632;28;20036;-44
2022/05/22 03:42:27;;;;;;;3.85;1.98;;;;;;;;;;5035430;28;20034;-43
2022/05/22 03:44:53;;;;;;;2.83;2.20;;;;;;;;;;5035831;28;20048;-45
2022/05/22 03:47:18;;;;;;;5.78;1.80;;;;;;;;;;5035432;28;20056;-43
2022/05/22 03:49:44;;;;;;;1.60;1.50;;;;;;;;;;5035615;28;20056;-43
2022/05/22 03:52:09;;;;;;;1.77;1.67;;;;;;;;;;5035808;28;20036;-45
2022/05/22 03:54:35;;;;;;;2.95;2.10;;;;;;;;;;5035613;28;20465;-44
2022/05/22 03:57:00;;;;;;;3.80;1.50;;;;;;;;;;5035728;28;20393;-45
2022/05/22 03:59:26;;;;;;;3.33;2.08;;;;;;;;;;5035930;28;20113;-43
2022/05/22 04:01:52;;;;;;;2.35;1.50;;;;;;;;;;5035544;28;20030;-43
2022/05/22 04:04:17;;;;;;;2.08;1.88;;;;;;;;;;5035149;28;20037;-43
2022/05/22 04:06:43;;;;;;;2.90;1.88;;;;;;;;;;5035642;28;20028;-45
2022/05/22 04:09:08;;;;;;;2.45;1.58;;;;;;;;;;5035134;28;20112;-43
2022/05/22 04:11:34;;;;;;;1.55;1.45;;;;;;;;;;5035329;28;20088;-43
2022/05/22 04:14:02;;;;;;;3.20;1.58;;;;;;;;;;5035244;28;20068;-44
2022/05/22 04:16:27;;;;;;;2.53;1.80;;;;;;;;;;5035222;28;20109;-44
2022/05/22 04:18:53;;;;;;;1.90;1.45;;;;;;;;;;5034853;28;20053;-45
2022/05/22 04:21:19;;;;;;;3.55;1.50;;;;;;;;;;5034667;28;20095;-44
2022/05/22 04:26:33;;;;;;;3.92;1.35;;;;;;;;;;5035032;28;20373;-44
2022/05/22 04:28:58;;;;;;;1.92;1.50;;;;;;;;;;5034795;28;20048;-44
2022/05/22 04:31:24;;;;;;;1.60;1.50;;;;;;;;;;5034623;28;20093;-43
2022/05/22 04:33:50;;;;;;;1.77;1.35;;;;;;;;;;5034479;28;20030;-43
2022/05/22 04:36:15;;;;;;;1.63;1.52;;;;;;;;;;5034600;28;20051;-44
2022/05/22 04:38:41;;;;;;;2.10;1.60;;;;;;;;;;5034683;28;20029;-44
2022/05/22 04:41:06;;;;;;;2.17;1.45;;;;;;;;;;5034067;28;20021;-44
2022/05/22 04:43:32;;;;;;;3.83;1.40;;;;;;;;;;5034465;28;20679;-45
2022/05/22 04:45:58;;;;;;;3.67;1.45;;;;;;;;;;5034258;28;20596;-43
2022/05/22 04:48:25;;;;;;;2.85;1.30;;;;;;;;;;5034097;28;20036;-45
2022/05/22 04:50:53;;;;;;;1.70;1.30;;;;;;;;;;5034369;28;20030;-45
2022/05/22 04:53:21;;;;;;;2.38;1.48;;;;;;;;;;5034524;28;20029;-45
2022/05/22 04:55:47;;;;;;;3.42;2.20;;;;;;;;;;5034017;28;20018;-47
2022/05/22 04:58:13;;;;;;;1.65;1.48;;;;;;;;;;5034407;28;20036;-45
2022/05/22 05:00:39;;;;;;;1.77;1.60;;;;;;;;;;5034106;28;20511;-43
2022/05/22 05:03:05;;;;;;;3.15;2.00;;;;;;;;;;5034186;28;20048;-44
2022/05/22 05:05:30;;;;;;;3.03;1.80;;;;;;;;;;5016744;28;20378;-43
2022/05/22 05:07:56;;;;;;;1.92;1.83;;;;;;;;;;5034084;28;20120;-43
2022/05/22 05:10:21;;;;;;;1.70;1.60;;;;;;;;;;5034289;28;20112;-45
2022/05/22 05:12:47;;;;;;;3.80;1.98;;;;;;;;;;5034157;28;20059;-45
2022/05/22 05:15:16;;;;;;;1.75;1.65;;;;;;;;;;5033908;28;20018;-44
2022/05/22 05:17:42;;;;;;;4.70;1.85;;;;;;;;;;5033720;28;20025;-44
2022/05/22 05:20:10;;;;;;;2.10;1.80;;;;;;;;;;5034078;28;20025;-45
2022/05/22 05:22:35;;;;;;;3.10;1.60;;;;;;;;;;5033909;28;20033;-43
2022/05/22 05:25:01;;;;;;;1.65;1.55;;;;;;;;;;5033901;28;20059;-46
2022/05/22 05:27:27;;;;;;;2.65;1.88;;;;;;;;;;5033876;28;20052;-45
2022/05/22 05:29:52;;;;;;;2.15;1.48;;;;;;;;;;5033582;28;20524;-48
2022/05/22 05:32:19;;;;;;;3.55;1.92;;;;;;;;;;5033539;28;20018;-46
2022/05/22 05:34:44;;;;;;;3.08;1.90;;;;;;;;;;5033753;28;20107;-46
2022/05/22 05:37:10;;;;;;;1.77;1.40;;;;;;;;;;5033535;28;20061;-46
2022/05/22 05:39:35;;;;;;;7.15;2.00;;;;;;;;;;5032961;28;20108;-47
2022/05/22 05:42:01;;;;;;;4.90;1.40;;;;;;;;;;5033036;28;20135;-43
2022/05/22 05:44:26;;;;;;;3.60;1.38;;;;;;;;;;5033179;28;20025;-46
2022/05/22 05:46:52;;;;;;;5.35;1.50;;;;;;;;;;5033515;28;20021;-45
2022/05/22 05:49:17;;;;;;;6.22;1.70;;;;;;;;;;5015741;28;20405;-46
2022/05/22 05:51:43;;;;;;;6.72;1.42;;;;;;;;;;5032967;28;20408;-47
2022/05/22 05:54:08;;;;;;;3.55;1.67;;;;;;;;;;5033004;28;20030;-46
2022/05/22 05:56:38;;;;;;;7.13;1.17;;;;;;;;;;5033215;28;20029;-46
2022/05/22 05:59:04;;;;;;;5.40;1.42;;;;;;;;;;5033266;28;20030;-46
2022/05/22 06:01:30;;;;;;;1.70;1.35;;;;;;;;;;5032957;28;20068;-46
2022/05/22 06:03:56;;;;;;;1.55;1.10;;;;;;;;;;5032781;28;20045;-47
2022/05/22 06:06:21;;;;;;;2.15;1.02;;;;;;;;;;5033115;28;20473;-48
2022/05/22 06:08:47;;;;;;;1.05;1.02;;;;;;;;;;5033047;28;20450;-44
2022/05/22 06:11:13;;;;;;;3.40;1.02;;;;;;;;;;5031229;28;20064;-46
2022/05/22 06:13:40;;;;;;;0.93;0.93;;;;;;;;;;5032292;28;20059;-44
2022/05/22 06:16:07;;;;;;;2.25;0.90;;;;;;;;;;5032392;28;20026;-47
2022/05/22 06:18:33;;;;;;;5.28;1.30;;;;;;;;;;5032191;28;20503;-48
2022/05/22 06:20:59;;;;;;;3.28;0.90;;;;;;;;;;5032101;28;20477;-46
2022/05/22 06:23:24;;;;;;;2.70;0.88;;;;;;;;;;5032367;28;20056;-46
2022/05/22 06:25:50;;;;;;;1.17;0.95;;;;;;;;;;5031902;28;20396;-44
2022/05/22 06:28:16;;;;;;;2.63;1.00;;;;;;;;;;5031370;28;20064;-47
2022/05/22 06:30:43;;;;;;;1.10;1.02;;;;;;;;;;5032444;28;20044;-45
2022/05/22 06:33:10;;;;;;;1.75;1.10;;;;;;;;;;5032140;28;20047;-46
2022/05/22 06:35:40;;;;;;;2.00;1.15;;;;;;;;;;5032452;28;20803;-46
2022/05/22 06:38:06;;;;;;;;;;;;;;;;;;5032975;28;20152;-46
2022/05/22 06:40:31;;;;;;;2.22;1.20;;;;;;;;;;5032548;28;20388;-46
2022/05/22 06:42:59;;;;;;;1.10;1.00;;;;;;;;;;5032257;28;20531;-48
2022/05/22 06:45:25;;;;;;;0.98;0.90;;;;;;;;;;5032370;28;20036;-47
2022/05/22 06:47:51;;;;;;;3.47;1.13;;;;;;;;;;5032637;28;20034;-47
2022/05/22 06:50:22;;;;;;;1.63;0.90;;;;;;;;;;5032283;28;20061;-48
2022/05/22 06:52:47;;;;;;;1.60;1.10;;;;;;;;;;5034163;28;20033;-48
2022/05/22 06:55:13;;;;;;;4.03;1.10;;;;;;;;;;5036506;28;20034;-48
2022/05/22 06:57:40;;;;;;;1.13;1.02;;;;;;;;;;5035131;28;20053;-46
2022/05/22 07:00:09;;;;;;;3.08;1.00;;;;;;;;;;5036379;28;20540;-47
2022/05/22 07:02:36;;;;;;;4.50;1.10;;;;;;;;;;5036181;28;20527;-48
2022/05/22 07:05:03;;;;;;;3.13;1.00;;;;;;;;;;5036130;28;20041;-47
2022/05/22 07:07:29;;;;;;;1.92;1.02;;;;;;;;;;5036150;28;20030;-47
2022/05/22 07:09:55;;;;;;;1.38;1.00;;;;;;;;;;5036165;28;20033;-50
2022/05/22 07:12:22;;;;;;;4.20;1.00;;;;;;;;;;5036422;28;20025;-48
2022/05/22 07:14:51;;;;;;;7.22;1.42;;;;;;;;;;5036246;28;20057;-48
2022/05/22 07:17:16;;;;;;;;;;;;;;;;;;5036473;28;20025;-45
2022/05/22 07:19:43;;;;;;;2.13;1.30;;;;;;;;;;5035976;28;19913;-49
2022/05/22 07:22:08;;;;;;;3.15;1.00;;;;;;;;;;5035702;28;20030;-46
2022/05/22 07:24:34;;;;;;;1.73;1.13;;;;;;;;;;5036168;28;20112;-49
2022/05/22 07:27:00;;;;;;;3.45;1.17;;;;;;;;;;5036113;28;20060;-48
2022/05/22 07:29:26;;;;;;;1.45;1.00;;;;;;;;;;5035872;28;20463;-51
2022/05/22 07:31:51;;;;;;;2.05;1.00;;;;;;;;;;5036039;28;20022;-44
2022/05/22 07:34:17;;;;;;;0.80;0.80;;;;;;;;;;5035658;28;20021;-44
2022/05/22 07:36:42;;;;;;;3.53;1.20;;;;;;;;;;5036018;28;20029;-48
2022/05/22 07:39:08;;;;;;;1.10;1.00;;;;;;;;;;5035943;28;20103;-50
2022/05/22 07:41:33;;;;;;;1.27;1.00;;;;;;;;;;5035695;28;20334;-50
2022/05/22 07:43:59;;;;;;;2.30;0.93;;;;;;;;;;5035908;28;20091;-50
2022/05/22 07:46:26;;;;;;;0.85;0.80;;;;;;;;;;5036071;28;20530;-49
2022/05/22 07:48:52;;;;;;;1.98;0.85;;;;;;;;;;5035751;28;20029;-49
2022/05/22 07:51:17;;;;;;;2.25;1.08;;;;;;;;;;5035765;28;20021;-48
2022/05/22 07:53:43;;;;;;;0.80;0.80;;;;;;;;;;5035618;28;20026;-49
2022/05/22 07:56:09;;;;;;;1.65;0.80;;;;;;;;;;5035330;28;20087;-50
2022/05/22 07:58:35;;;;;;;3.03;1.00;;;;;;;;;;5035570;28;20033;-47
2022/05/22 08:01:02;;;;;;;1.60;1.10;;;;;;;;;;5035350;28;20029;-47
2022/05/22 08:03:27;;;;;;;2.25;1.10;;;;;;;;;;5034856;28;20362;-47
2022/05/22 08:05:55;;;;;;;1.33;0.88;;;;;;;;;;5035514;28;20029;-48
2022/05/22 08:08:21;;;;;;;1.45;0.85;;;;;;;;;;5035374;28;20381;-49
2022/05/22 08:10:47;;;;;;;2.05;1.00;;;;;;;;;;5035030;28;20033;-49
2022/05/22 08:13:13;;;;;;;0.80;0.80;;;;;;;;;;5034969;28;20025;-49
2022/05/22 08:15:41;;;;;;;0.98;0.80;;;;;;;;;;5034946;28;20111;-46
2022/05/22 08:18:09;;;;;;;1.00;0.75;;;;;;;;;;5034914;28;20024;-46
2022/05/22 08:20:37;;;;;;;6.85;1.90;;;;;;;;;;5035005;28;20030;-48
2022/05/22 08:23:06;;;;;;;6.18;0.85;;;;;;;;;;5035101;28;20030;-45
2022/05/22 08:25:31;;;;;;;2.42;1.10;;;;;;;;;;5034775;28;20057;-48
2022/05/22 08:27:58;;;;;;;2.90;0.90;;;;;;;;;;5035068;28;20064;-46
2022/05/22 08:30:25;;;;;;;0.93;0.90;;;;;;;;;;5035034;28;20022;-48
2022/05/22 08:32:51;;;;;;;2.92;0.80;;;;;;;;;;5034547;28;20512;-46
2022/05/22 08:35:21;;;;;;;2.22;1.00;;;;;;;;;;5034737;28;20370;-49
2022/05/22 08:37:47;;;;;;;0.80;0.80;;;;;;;;;;5034629;28;20068;-49
2022/05/22 08:40:14;;;;;;;3.70;0.88;;;;;;;;;;5016751;28;20425;-45
2022/05/22 08:42:50;;;;;;;1.08;0.90;;;;;;;;;;5034733;28;20037;-44
2022/05/22 08:45:19;;;;;;;3.30;1.05;;;;;;;;;;5034357;28;20239;-45
2022/05/22 08:48:23;;;;;;;3.40;0.82;;;;;;;;;;5034076;28;20065;-45
2022/05/22 08:50:50;;;;;;;0.95;0.80;;;;;;;;;;5034634;28;20033;-46
2022/05/22 08:53:25;;;;;;;0.98;0.90;;;;;;;;;;5033948;28;20060;-45
2022/05/22 08:58:56;;;;;;;1.15;0.85;;;;;;;;;;5034157;28;20048;-44
2022/05/22 09:01:32;;;;;;;2.08;0.80;;;;;;;;;;5034198;28;20040;-45
2022/05/22 09:04:35;;;;;;;0.82;0.80;;;;;;;;;;5033837;28;20053;-43
2022/05/22 09:07:12;;;;;;;2.88;1.48;;;;;;;;;;4972720;28;20119;-44
2022/05/22 09:09:41;;;;;;;0.73;0.73;;;;;;;;;;5026494;28;20041;-47
2022/05/22 09:12:09;;;;;;;2.13;1.00;;;;;;;;;;5034004;28;20128;-44
2022/05/22 09:14:49;;;;;;;2.05;0.90;;;;;;;;;;5033406;28;20032;-44
2022/05/22 09:17:17;;;;;;;2.10;0.90;;;;;;;;;;5033746;28;20489;-45
2022/05/22 09:20:06;;;;;;;2.30;0.90;;;;;;;;;;5033934;28;20033;-48
2022/05/22 09:22:55;;;;;;;2.58;1.23;;;;;;;;;;5019347;28;20061;-46
2022/05/22 09:26:06;;;;;;;2.92;1.00;;;;;;;;;;5033915;28;20029;-47
2022/05/22 09:28:50;;;;;;;4.22;1.20;;;;;;;;;;5005680;28;20151;-46
2022/05/22 09:31:30;;;;;;;2.30;1.38;;;;;;;;;;5033726;28;20057;-45
2022/05/22 09:34:14;;;;;;;1.65;1.00;;;;;;;;;;5033742;28;20022;-47
2022/05/22 09:36:51;;;;;;;3.70;1.10;;;;;;;;;;5033655;28;20128;-48
2022/05/22 09:39:51;;;;;;;1.33;1.00;;;;;;;;;;5033446;28;20493;-49
2022/05/22 09:42:36;;;;;;;3.20;0.85;;;;;;;;;;5032903;28;20037;-45
2022/05/22 09:45:01;;;;;;;1.42;0.95;;;;;;;;;;5033603;28;20033;-48
2022/05/22 09:47:52;;;;;;;0.85;0.80;;;;;;;;;;5033218;28;20078;-49
2022/05/22 09:50:48;;;;;;;2.83;0.75;;;;;;;;;;5032825;28;20557;-48
2022/05/22 09:53:54;;;;;;;5.10;1.20;;;;;;;;;;5005916;28;20576;-45
2022/05/22 09:56:36;;;;;;;50.30;5.20;;;;;;;;;;5033168;28;20033;-46
2022/05/22 09:59:39;;;;;;;11.02;1.67;;;;;;;;;;5033231;28;20027;-46
2022/05/22 10:02:27;;;;;;;18.95;1.90;;;;;;;;;;5033037;28;20034;-43
2022/05/22 10:04:58;;;;;;;1.63;1.00;;;;;;;;;;5032756;28;20049;-51
2022/05/22 10:07:43;;;;;;;2.88;0.80;;;;;;;;;;5032710;28;20501;-46
2022/05/22 10:10:12;;;;;;;2.17;0.90;;;;;;;;;;5033114;28;20038;-44
2022/05/22 10:12:46;;;;;;;4.38;1.55;;;;;;;;;;5032719;28;20017;-45
2022/05/22 10:15:43;;;;;;;2.38;1.30;;;;;;;;;;5032743;28;20473;-47
2022/05/22 10:18:14;;;;;;;3.05;1.15;;;;;;;;;;5032699;28;20041;-46
2022/05/22 10:20:56;;;;;;;2.20;1.33;;;;;;;;;;5032530;28;20029;-46
2022/05/22 10:23:59;;;;;;;1.98;1.30;;;;;;;;;;5032699;28;20021;-45
2022/05/22 10:27:00;;;;;;;1.77;1.23;;;;;;;;;;5032423;28;20481;-46
2022/05/22 10:29:26;;;;;;;4.70;1.40;;;;;;;;;;5032531;28;20033;-45
2022/05/22 10:32:02;;;;;;;2.22;1.30;;;;;;;;;;5032412;28;20080;-45
2022/05/22 10:34:30;;;;;;;8.80;1.67;;;;;;;;;;5032731;28;20029;-45
2022/05/22 10:37:00;;;;;;;3.70;1.23;;;;;;;;;;5032417;28;20093;-44
2022/05/22 10:39:25;;;;;;;1.98;1.13;;;;;;;;;;5032409;28;20499;-46
2022/05/22 10:43:10;;;;;;;6.07;1.40;;;;;;;;;;5032577;28;20029;-43
2022/05/22 10:45:36;;;;;;;2.17;1.00;;;;;;;;;;5014920;28;20069;-46
2022/05/22 10:48:21;;;;;;;2.08;1.17;;;;;;;;;;5031375;28;20508;-43
2022/05/22 10:51:06;;;;;;;2.75;1.42;;;;;;;;;;5032194;28;20405;-46
2022/05/22 10:53:41;;;;;;;1.63;1.10;;;;;;;;;;5032479;28;20025;-45
2022/05/22 10:56:36;;;;;;;1.80;1.70;;;;;;;;;;5014858;28;20382;-44
2022/05/22 10:59:06;;;;;;;2.83;1.60;;;;;;;;;;5031994;28;20034;-45
2022/05/22 11:01:37;;;;;;;8.45;1.50;;;;;;;;;;5032412;28;20121;-46
2022/05/22 11:04:24;;;;;;;1.75;1.20;;;;;;;;;;5031968;28;20046;-44
2022/05/22 11:06:58;;;;;;;4.72;1.30;;;;;;;;;;5032315;28;20033;-45
2022/05/22 11:09:29;;;;;;;1.98;1.20;;;;;;;;;;5032319;28;20041;-46
2022/05/22 11:12:10;;;;;;;3.30;1.52;;;;;;;;;;5032096;28;20405;-45
2022/05/22 11:14:36;;;;;;;3.58;1.40;;;;;;;;;;5032296;28;20025;-45
2022/05/22 11:17:14;;;;;;;5.07;1.30;;;;;;;;;;5032250;28;20108;-48
2022/05/22 11:19:42;;;;;;;3.40;1.52;;;;;;;;;;5032405;28;20026;-45
2022/05/22 11:22:58;;;;;;;2.30;1.15;;;;;;;;;;5014460;28;20032;-45
2022/05/22 11:26:01;;;;;;;1.30;1.20;;;;;;;;;;4970831;28;20081;-45
2022/05/22 11:28:38;;;;;;;2.40;1.30;;;;;;;;;;4970790;28;20117;-46
2022/05/22 11:31:37;;;;;;;2.67;1.10;;;;;;;;;;5024362;28;20045;-45
2022/05/22 11:34:44;;;;;;;1.25;1.13;;;;;;;;;;5031943;28;20030;-48
2022/05/22 11:37:25;;;;;;;3.22;1.00;;;;;;;;;;5023586;28;20068;-47
2022/05/22 11:40:03;;;;;;;1.13;0.98;;;;;;;;;;5035374;28;20095;-47
2022/05/22 11:42:36;;;;;;;1.00;0.90;;;;;;;;;;5035491;28;20033;-48
2022/05/22 11:45:24;;;;;;;2.05;1.30;;;;;;;;;;5035023;28;20057;-43
2022/05/22 11:48:29;;;;;;;1.80;1.17;;;;;;;;;;5035054;28;20535;-44
2022/05/22 11:50:57;;;;;;;6.82;1.27;;;;;;;;;;5002543;28;20408;-48
2022/05/22 11:53:30;;;;;;;8.75;1.38;;;;;;;;;;5033409;28;20095;-45
2022/05/22 11:55:58;;;;;;;7.05;1.00;;;;;;;;;;5033545;28;20116;-44
2022/05/22 11:58:50;;;;;;;11.88;1.30;;;;;;;;;;5033643;28;20091;-46
2022/05/22 12:01:26;;;;;;;2.67;0.98;;;;;;;;;;5033654;28;20116;-47
2022/05/22 12:04:10;;;;;;;2.33;1.13;;;;;;;;;;5034939;28;20400;-48
2022/05/22 12:06:44;;;;;;;2.67;1.20;;;;;;;;;;5034837;28;20032;-49
2022/05/22 12:09:16;;;;;;;3.38;1.00;;;;;;;;;;5033890;28;20033;-48
2022/05/22 12:11:56;;;;;;;3.35;1.30;;;;;;;;;;5033254;28;20026;-48
2022/05/22 12:15:16;;;;;;;3.28;1.40;;;;;;;;;;5033973;28;20022;-47
2022/05/22 12:18:09;;;;;;;1.85;1.20;;;;;;;;;;5030659;28;20441;-46
2022/05/22 12:20:54;;;;;;;4.68;1.20;;;;;;;;;;5035009;28;20037;-46
2022/05/22 12:23:50;;;;;;;1.40;1.20;;;;;;;;;;5034686;28;20041;-46
2022/05/22 12:26:16;;;;;;;10.10;1.33;;;;;;;;;;5034957;28;20029;-48
2022/05/22 12:28:47;;;;;;;8.52;1.50;;;;;;;;;;5034951;28;20087;-46
2022/05/22 12:31:23;;;;;;;2.78;1.00;;;;;;;;;;5034588;28;20511;-47
2022/05/22 12:33:50;;;;;;;1.95;1.00;;;;;;;;;;5034984;28;20033;-50
2022/05/22 12:36:23;;;;;;;4.55;1.20;;;;;;;;;;5034596;28;20024;-47
2022/05/22 12:38:56;;;;;;;2.65;1.00;;;;;;;;;;5034859;28;20096;-47
2022/05/22 12:41:39;;;;;;;3.08;1.15;;;;;;;;;;5034638;28;20053;-45
2022/05/22 12:44:06;;;;;;;3.55;1.00;;;;;;;;;;5034453;28;20474;-45
2022/05/22 12:46:33;;;;;;;4.95;1.42;;;;;;;;;;5034591;28;20033;-47
2022/05/22 12:49:10;;;;;;;1.63;1.10;;;;;;;;;;5033089;28;20043;-48
2022/05/22 12:51:39;;;;;;;2.67;1.10;;;;;;;;;;5033956;28;20112;-45
2022/05/22 12:54:21;;;;;;;1.63;1.00;;;;;;;;;;5034173;28;20029;-48
2022/05/22 12:56:47;;;;;;;4.13;1.10;;;;;;;;;;5034048;28;20109;-48
2022/05/22 12:59:25;;;;;;;1.25;0.93;;;;;;;;;;5033593;28;20127;-46
2022/05/22 13:02:00;;;;;;;1.20;1.10;;;;;;;;;;5033989;28;20063;-48
2022/05/22 13:04:29;;;;;;;2.08;1.10;;;;;;;;;;5033929;28;20045;-47
2022/05/22 13:06:57;;;;;;;3.47;1.43;;;;;;;;;;5034011;28;20569;-46
2022/05/22 13:09:31;;;;;;;2.30;1.40;;;;;;;;;;5034256;28;20132;-47
2022/05/22 13:12:12;;;;;;;2.33;1.27;;;;;;;;;;5016151;28;20025;-48
2022/05/22 13:14:40;;;;;;;2.33;1.13;;;;;;;;;;5033942;28;20472;-48
2022/05/22 13:17:07;;;;;;;4.05;1.33;;;;;;;;;;5034156;28;20036;-47
2022/05/22 13:19:33;;;;;;;5.07;1.67;;;;;;;;;;5033835;28;20025;-47
2022/05/22 13:22:10;;;;;;;1.67;1.38;;;;;;;;;;5033985;28;20079;-49
2022/05/22 13:24:38;;;;;;;1.67;1.20;;;;;;;;;;5034003;28;20048;-50
2022/05/22 13:27:29;;;;;;;2.78;1.00;;;;;;;;;;5033985;28;20242;-49
2022/05/22 13:30:17;;;;;;;6.38;1.25;;;;;;;;;;5033650;28;20485;-50
2022/05/22 13:33:00;;;;;;;1.50;1.13;;;;;;;;;;5033847;28;20485;-48
2022/05/22 13:35:30;;;;;;;1.25;1.10;;;;;;;;;;5033587;28;20116;-48
2022/05/22 13:37:56;;;;;;;3.60;1.30;;;;;;;;;;5033668;28;20539;-48
2022/05/22 13:40:37;;;;;;;1.60;1.20;;;;;;;;;;5033450;28;20087;-46
2022/05/22 13:43:24;;;;;;;1.52;1.10;;;;;;;;;;5033468;28;20032;-46
2022/05/22 13:46:07;;;;;;;1.45;1.10;;;;;;;;;;5033615;28;20029;-48
2022/05/22 13:48:39;;;;;;;0.85;0.85;;;;;;;;;;5033159;28;20040;-47
2022/05/22 13:54:23;;;;;;;2.65;1.08;;;;;;;;;;5033196;28;20033;-48
2022/05/22 13:56:56;;;;;;;1.40;1.08;;;;;;;;;;5033168;28;20030;-48
2022/05/22 13:59:27;;;;;;;2.25;1.10;;;;;;;;;;5033068;28;20026;-49
2022/05/22 14:01:55;;;;;;;4.38;1.23;;;;;;;;;;5032569;28;20411;-48
2022/05/22 14:04:22;;;;;;;6.13;1.15;;;;;;;;;;5015258;28;20106;-47
2022/05/22 14:06:49;;;;;;;1.35;0.93;;;;;;;;;;5032995;28;20072;-46
2022/05/22 14:09:24;;;;;;;1.73;1.00;;;;;;;;;;5033173;28;20377;-48
2022/05/22 14:11:53;;;;;;;2.67;1.65;;;;;;;;;;5032772;28;20021;-48
2022/05/22 14:14:30;;;;;;;1.03;0.80;;;;;;;;;;5033213;28;20113;-48
2022/05/22 14:17:02;;;;;;;3.80;0.90;;;;;;;;;;5032936;28;20040;-47
2022/05/22 14:19:35;;;;;;;2.22;0.90;;;;;;;;;;5032711;28;20492;-46
2022/05/22 14:22:10;;;;;;;0.90;0.90;;;;;;;;;;5032517;28;20033;-46
2022/05/22 14:24:54;;;;;;;3.72;0.88;;;;;;;;;;5032727;28;20072;-47
2022/05/22 14:27:49;;;;;;;1.17;0.93;;;;;;;;;;5032911;28;20033;-48
2022/05/22 14:30:30;;;;;;;2.67;1.13;;;;;;;;;;5032467;28;20477;-48
2022/05/22 14:32:59;;;;;;;4.03;1.20;;;;;;;;;;5032857;28;20029;-48
2022/05/22 14:35:29;;;;;;;;;;;;;;;;;;5033449;28;20075;-48
2022/05/22 14:37:56;;;;;;;2.75;1.35;;;;;;;;;;5032812;28;19982;-48
2022/05/22 14:40:34;;;;;;;1.70;1.00;;;;;;;;;;5032722;28;20381;-48
2022/05/22 14:43:04;;;;;;;1.60;1.40;;;;;;;;;;5032689;28;20033;-47
2022/05/22 14:45:41;;;;;;;2.00;1.20;;;;;;;;;;5032430;28;20291;-47
2022/05/22 14:48:10;;;;;;;2.15;1.17;;;;;;;;;;5032291;28;20037;-48
2022/05/22 14:50:42;;;;;;;2.35;1.40;;;;;;;;;;5032116;28;20033;-47
2022/05/22 14:53:11;;;;;;;3.00;1.10;;;;;;;;;;5032425;28;20478;-45
2022/05/22 14:55:42;;;;;;;4.45;1.17;;;;;;;;;;5032577;28;20036;-46
2022/05/22 14:58:19;;;;;;;1.40;1.23;;;;;;;;;;5032333;28;20168;-48
2022/05/22 15:00:52;;;;;;;2.92;1.48;;;;;;;;;;5032184;28;20548;-47
2022/05/22 15:03:28;;;;;;;3.95;1.48;;;;;;;;;;5032096;28;20041;-47
2022/05/22 15:05:58;;;;;;;5.95;1.52;;;;;;;;;;5032498;28;20021;-47
2022/05/22 15:08:25;;;;;;;4.47;1.27;;;;;;;;;;5032482;28;20029;-47
2022/05/22 15:10:51;;;;;;;1.30;1.10;;;;;;;;;;5032515;28;20388;-47
2022/05/22 15:13:28;;;;;;;2.08;1.20;;;;;;;;;;5033403;28;20025;-47
2022/05/22 15:16:06;;;;;;;3.38;1.20;;;;;;;;;;5036164;28;20055;-47
2022/05/22 15:21:23;;;;;;;2.72;1.70;;;;;;;;;;5036221;28;20412;-45
2022/05/22 15:26:34;;;;;;;7.20;1.50;;;;;;;;;;5036214;28;20118;-47
2022/05/22 15:29:16;;;;;;;4.70;1.25;;;;;;;;;;5035852;28;20033;-43
2022/05/22 15:31:42;;;;;;;1.77;1.10;;;;;;;;;;5035832;28;20115;-43
2022/05/22 15:34:23;;;;;;;2.08;1.25;;;;;;;;;;5035759;28;20167;-43